createdAt,value
2023-02-18T00:01:01.355Z,79.88
2023-02-18T00:03:30.641Z,79.89
2023-02-18T00:05:59.031Z,80.04
2023-02-18T00:08:27.316Z,80.00
2023-02-18T00:10:55.575Z,79.81
2023-02-18T00:13:23.863Z,80.33
2023-02-18T00:15:53.742Z,79.87
2023-02-18T00:18:22.030Z,80.40
2023-02-18T00:20:50.272Z,79.97
2023-02-18T00:23:18.489Z,80.25
2023-02-18T00:25:46.609Z,79.99
2023-02-18T00:28:14.818Z,80.10
2023-02-18T00:30:43.549Z,80.20
2023-02-18T00:33:13.089Z,80.33
2023-02-18T00:35:41.396Z,80.19
2023-02-18T00:38:09.599Z,80.31
2023-02-18T00:40:38.820Z,80.08
2023-02-18T00:43:07.212Z,80.02
2023-02-18T00:45:35.437Z,79.96
2023-02-18T00:48:05.397Z,80.03
2023-02-18T00:50:34.962Z,80.39
2023-02-18T00:53:03.113Z,80.63
2023-02-18T00:55:32.125Z,80.25
2023-02-18T00:58:00.478Z,80.49
2023-02-18T01:00:28.666Z,80.90
2023-02-18T01:02:57.000Z,81.22
2023-02-18T01:05:25.289Z,81.02
2023-02-18T01:07:54.855Z,81.11
2023-02-18T01:10:23.769Z,81.29
2023-02-18T01:12:52.077Z,81.14
2023-02-18T01:15:20.587Z,81.61
2023-02-18T01:17:49.010Z,81.44
2023-02-18T01:20:17.514Z,81.53
2023-02-18T01:22:45.786Z,82.01
2023-02-18T01:25:16.346Z,82.28
2023-02-18T01:27:44.665Z,82.88
2023-02-18T01:30:16.176Z,83.26
2023-02-18T01:32:47.226Z,83.28
2023-02-18T01:35:18.396Z,82.65
2023-02-18T01:37:47.418Z,82.00
2023-02-18T01:40:19.486Z,81.72
2023-02-18T01:42:48.572Z,81.14
2023-02-18T01:46:00.310Z,81.11
2023-02-18T01:48:31.906Z,81.65
2023-02-18T01:51:04.088Z,81.18
2023-02-18T01:53:36.585Z,80.96
2023-02-18T01:56:08.466Z,80.83
2023-02-18T01:58:37.652Z,81.25
2023-02-18T02:01:06.681Z,80.99
2023-02-18T02:03:36.254Z,80.52
2023-02-18T02:06:11.167Z,80.96
2023-02-18T02:08:39.584Z,80.86
2023-02-18T02:11:18.483Z,80.66
2023-02-18T02:14:12.673Z,80.92
2023-02-18T02:16:46.696Z,81.06
2023-02-18T02:19:36.460Z,80.76
2023-02-18T02:22:19.149Z,81.08
2023-02-18T02:25:04.234Z,81.01
2023-02-18T02:28:01.190Z,80.96
2023-02-18T02:31:02.377Z,81.24
2023-02-18T02:34:13.249Z,81.38
2023-02-18T02:36:48.652Z,81.41
2023-02-18T02:39:22.952Z,81.49
2023-02-18T02:41:58.344Z,81.34
2023-02-18T02:44:32.179Z,81.67
2023-02-18T02:47:05.417Z,81.72
2023-02-18T02:49:39.284Z,82.25
2023-02-18T02:52:12.848Z,82.62
2023-02-18T02:54:41.212Z,82.32
2023-02-18T02:57:55.105Z,82.64
2023-02-18T03:00:34.730Z,83.05
2023-02-18T03:03:34.412Z,82.83
2023-02-18T03:06:17.469Z,82.75
2023-02-18T03:08:55.554Z,83.02
2023-02-18T03:11:24.003Z,84.25
2023-02-18T03:13:59.171Z,84.34
2023-02-18T03:16:37.567Z,83.71
2023-02-18T03:19:11.526Z,84.64
2023-02-18T03:21:44.828Z,84.63
2023-02-18T03:24:18.111Z,85.32
2023-02-18T03:26:49.266Z,85.23
2023-02-18T03:29:19.210Z,85.86
2023-02-18T03:31:54.267Z,85.32
2023-02-18T03:34:27.092Z,85.44
2023-02-18T03:36:55.550Z,85.08
2023-02-18T03:39:28.339Z,84.88
2023-02-18T03:41:56.660Z,85.12
2023-02-18T03:44:26.489Z,85.06
2023-02-18T03:46:54.824Z,84.44
2023-02-18T03:49:23.250Z,84.51
2023-02-18T03:51:51.522Z,84.06
2023-02-18T03:54:20.457Z,83.70
2023-02-18T03:56:50.375Z,83.82
2023-02-18T03:59:18.885Z,83.43
2023-02-18T04:01:47.095Z,83.46
2023-02-18T04:04:40.642Z,82.92
2023-02-18T04:07:09.099Z,82.43
2023-02-18T04:09:37.771Z,82.68
2023-02-18T04:12:08.320Z,82.37
2023-02-18T04:14:36.910Z,82.31
2023-02-18T04:17:05.259Z,82.02
2023-02-18T04:19:33.489Z,81.99
2023-02-18T04:22:01.605Z,82.00
2023-02-18T04:24:29.917Z,81.41
2023-02-18T04:26:58.059Z,81.51
2023-02-18T04:29:27.693Z,80.96
2023-02-18T04:31:55.877Z,80.62
2023-02-18T04:34:24.249Z,81.01
2023-02-18T04:36:52.485Z,81.22
2023-02-18T04:39:20.697Z,81.24
2023-02-18T04:41:48.960Z,81.30
2023-02-18T04:44:17.376Z,81.16
2023-02-18T04:46:47.058Z,80.49
2023-02-18T04:49:40.354Z,80.05
2023-02-18T04:52:08.729Z,80.24
2023-02-18T04:54:37.036Z,79.73
2023-02-18T04:57:05.482Z,79.95
2023-02-18T04:59:34.349Z,79.00
2023-02-18T05:02:04.498Z,79.14
2023-02-18T05:04:32.863Z,79.66
2023-02-18T05:07:01.222Z,79.06
2023-02-18T05:09:29.720Z,79.63
2023-02-18T05:11:58.065Z,79.43
2023-02-18T05:14:26.392Z,79.40
2023-02-18T05:16:54.671Z,79.55
2023-02-18T05:19:24.509Z,79.63
2023-02-18T05:21:52.925Z,80.52
2023-02-18T05:24:21.237Z,80.00
2023-02-18T05:26:49.602Z,80.73
2023-02-18T05:29:18.057Z,80.67
2023-02-18T05:31:46.437Z,80.69
2023-02-18T05:34:14.850Z,80.94
2023-02-18T05:36:45.136Z,81.59
2023-02-18T05:39:13.823Z,81.60
2023-02-18T05:41:42.200Z,80.57
2023-02-18T05:44:27.796Z,81.02
2023-02-18T05:46:56.170Z,81.06
2023-02-18T05:49:24.532Z,80.82
2023-02-18T05:51:54.430Z,81.14
2023-02-18T05:54:22.907Z,80.89
2023-02-18T05:56:51.260Z,81.33
2023-02-18T05:59:20.012Z,80.51
2023-02-18T06:01:48.809Z,81.19
2023-02-18T06:04:17.518Z,81.30
2023-02-18T06:06:46.087Z,80.71
2023-02-18T06:09:16.226Z,80.56
2023-02-18T06:11:44.727Z,80.90
2023-02-18T06:14:13.173Z,80.04
2023-02-18T06:16:41.792Z,80.10
2023-02-18T06:19:10.183Z,80.28
2023-02-18T06:21:38.728Z,79.26
2023-02-18T06:24:07.688Z,79.79
2023-02-18T06:26:37.417Z,79.64
2023-02-18T06:29:06.302Z,78.93
2023-02-18T06:31:34.831Z,79.46
2023-02-18T06:34:03.154Z,78.60
2023-02-18T06:36:31.675Z,78.69
2023-02-18T06:39:00.016Z,78.84
2023-02-18T06:41:28.910Z,78.79
2023-02-18T06:43:58.650Z,79.17
2023-02-18T06:46:27.746Z,79.01
2023-02-18T06:48:56.588Z,78.83
2023-02-18T06:51:25.954Z,79.24
2023-02-18T06:53:54.822Z,79.13
2023-02-18T06:56:23.166Z,78.73
2023-02-18T06:58:51.521Z,78.48
2023-02-18T07:01:21.260Z,78.89
2023-02-18T07:03:50.335Z,78.63
2023-02-18T07:06:18.787Z,78.28
2023-02-18T07:08:47.265Z,78.41
2023-02-18T07:11:15.729Z,78.98
2023-02-18T07:13:44.484Z,78.48
2023-02-18T07:16:13.123Z,78.34
2023-02-18T07:18:42.909Z,78.50
2023-02-18T07:21:11.270Z,78.59
2023-02-18T07:23:40.093Z,77.62
2023-02-18T07:26:10.391Z,78.09
2023-02-18T07:28:39.227Z,77.58
2023-02-18T07:31:08.493Z,77.56
2023-02-18T07:33:37.092Z,77.91
2023-02-18T07:36:08.437Z,77.31
2023-02-18T07:38:36.862Z,76.98
2023-02-18T07:41:05.591Z,76.88
2023-02-18T07:43:34.409Z,77.09
2023-02-18T07:46:07.581Z,77.40
2023-02-18T07:48:36.142Z,76.64
2023-02-18T07:51:09.128Z,76.82
2023-02-18T07:53:37.962Z,77.06
2023-02-18T07:56:07.747Z,76.75
2023-02-18T07:58:38.018Z,76.90
2023-02-18T08:01:07.090Z,76.73
2023-02-18T08:03:35.807Z,76.62
2023-02-18T08:06:05.059Z,77.15
2023-02-18T08:08:36.981Z,77.02
2023-02-18T08:11:17.997Z,76.51
2023-02-18T08:13:47.435Z,75.93
2023-02-18T08:16:15.906Z,75.62
2023-02-18T08:18:44.740Z,75.84
2023-02-18T08:21:13.061Z,75.79
2023-02-18T08:23:42.769Z,75.30
2023-02-18T08:26:11.293Z,75.24
2023-02-18T08:28:43.474Z,74.95
2023-02-18T08:31:18.179Z,74.91
2023-02-18T08:33:46.373Z,74.66
2023-02-18T08:36:15.097Z,73.44
2023-02-18T08:38:45.126Z,73.48
2023-02-18T08:41:14.536Z,73.68
2023-02-18T08:43:42.923Z,73.45
2023-02-18T08:46:16.161Z,73.18
2023-02-18T08:48:45.397Z,73.06
2023-02-18T08:51:15.459Z,72.74
2023-02-18T08:53:46.627Z,72.85
2023-02-18T08:56:15.712Z,72.23
2023-02-18T08:58:44.298Z,71.93
2023-02-18T09:01:14.362Z,72.22
2023-02-18T09:03:42.661Z,72.11
2023-02-18T09:06:11.228Z,72.39
2023-02-18T09:08:39.710Z,72.02
2023-02-18T09:11:11.195Z,71.42
2023-02-18T09:13:39.875Z,71.68
2023-02-18T09:16:10.343Z,71.14
2023-02-18T09:18:39.065Z,70.90
2023-02-18T09:21:09.472Z,71.57
2023-02-18T09:23:38.293Z,70.71
2023-02-18T09:26:07.859Z,70.20
2023-02-18T09:28:37.773Z,70.14
2023-02-18T09:31:07.826Z,68.87
2023-02-18T09:33:37.544Z,69.08
2023-02-18T09:36:06.342Z,68.37
2023-02-18T09:38:34.976Z,67.79
2023-02-18T09:41:05.825Z,67.53
2023-02-18T09:43:38.070Z,67.49
2023-02-18T09:46:12.870Z,67.91
2023-02-18T09:48:41.567Z,67.56
2023-02-18T09:51:13.021Z,66.81
2023-02-18T09:53:44.916Z,66.79
2023-02-18T09:56:13.821Z,66.81
2023-02-18T09:58:44.584Z,67.07
2023-02-18T10:01:18.862Z,67.39
2023-02-18T10:03:47.319Z,67.63
2023-02-18T10:06:20.102Z,66.95
2023-02-18T10:08:49.823Z,66.16
2023-02-18T10:11:20.089Z,66.58
2023-02-18T10:13:49.674Z,67.29
2023-02-18T10:16:21.987Z,67.23
2023-02-18T10:18:52.935Z,67.04
2023-02-18T10:21:23.218Z,66.92
2023-02-18T10:23:57.593Z,66.45
2023-02-18T10:26:26.065Z,66.55
2023-02-18T10:28:55.650Z,66.56
2023-02-18T10:31:27.552Z,65.75
2023-02-18T10:34:01.753Z,66.44
2023-02-18T10:36:38.065Z,64.92
2023-02-18T10:39:22.480Z,65.32
2023-02-18T10:41:59.623Z,65.83
2023-02-18T10:44:37.111Z,66.08
2023-02-18T10:47:16.370Z,65.54
2023-02-18T10:49:57.837Z,65.80
2023-02-18T10:52:29.072Z,65.54
2023-02-18T10:55:00.640Z,65.14
2023-02-18T10:57:29.050Z,65.47
2023-02-18T11:00:01.900Z,65.23
2023-02-18T11:02:32.841Z,64.90
2023-02-18T11:05:02.771Z,63.93
2023-02-18T11:07:33.585Z,65.13
2023-02-18T11:10:03.616Z,64.92
2023-02-18T11:12:48.067Z,64.42
2023-02-18T11:15:22.102Z,64.09
2023-02-18T11:17:52.044Z,64.09
2023-02-18T11:20:37.684Z,64.18
2023-02-18T11:23:38.276Z,63.79
2023-02-18T11:26:16.578Z,64.60
2023-02-18T11:28:46.527Z,64.40
2023-02-18T11:31:22.177Z,63.80
2023-02-18T11:33:52.673Z,64.44
2023-02-18T11:36:25.139Z,64.55
2023-02-18T11:38:55.950Z,64.04
2023-02-18T11:41:44.849Z,64.26
2023-02-18T11:44:21.718Z,63.33
2023-02-18T11:47:00.954Z,64.13
2023-02-18T11:49:30.871Z,64.45
2023-02-18T11:52:20.565Z,64.08
2023-02-18T11:55:01.765Z,63.83
2023-02-18T11:57:30.688Z,63.17
2023-02-18T12:00:00.336Z,63.65
2023-02-18T12:02:35.802Z,63.36
2023-02-18T12:05:06.105Z,63.51
2023-02-18T12:07:47.324Z,64.50
2023-02-18T12:10:20.232Z,64.29
2023-02-18T12:12:51.034Z,63.23
2023-02-18T12:15:23.841Z,63.35
2023-02-18T12:18:05.554Z,63.94
2023-02-18T12:21:08.662Z,63.18
2023-02-18T12:23:39.770Z,63.18
2023-02-18T12:26:17.122Z,63.16
2023-02-18T12:28:53.437Z,63.66
2023-02-18T12:31:35.146Z,63.45
2023-02-18T12:34:18.421Z,63.59
2023-02-18T12:36:56.137Z,62.80
2023-02-18T12:39:35.894Z,62.74
2023-02-18T12:42:13.727Z,63.13
2023-02-18T12:44:45.975Z,63.08
2023-02-18T12:47:33.163Z,63.10
2023-02-18T12:50:18.236Z,63.88
2023-02-18T12:52:57.287Z,63.52
2023-02-18T12:55:36.877Z,62.00
2023-02-18T12:58:11.313Z,63.00
2023-02-18T13:00:58.482Z,62.78
2023-02-18T13:03:54.833Z,62.93
2023-02-18T13:06:35.186Z,62.92
2023-02-18T13:09:10.754Z,62.93
2023-02-18T13:11:48.223Z,63.14
2023-02-18T13:14:21.370Z,63.98
2023-02-18T13:16:52.601Z,63.78
2023-02-18T13:19:24.294Z,63.46
2023-02-18T13:21:57.035Z,63.37
2023-02-18T13:24:32.553Z,62.79
2023-02-18T13:27:07.246Z,63.80
2023-02-18T13:29:39.167Z,63.52
2023-02-18T13:32:13.120Z,63.45
2023-02-18T13:34:44.944Z,63.11
2023-02-18T13:37:21.187Z,63.60
2023-02-18T13:39:53.088Z,63.46
2023-02-18T13:42:35.357Z,62.44
2023-02-18T13:45:34.062Z,63.98
2023-02-18T13:48:23.952Z,63.52
2023-02-18T13:50:53.704Z,62.92
2023-02-18T13:53:26.480Z,63.11
2023-02-18T13:56:01.873Z,63.04
2023-02-18T13:58:38.154Z,63.03
2023-02-18T14:01:13.597Z,63.20
2023-02-18T14:04:01.567Z,63.54
2023-02-18T14:06:33.597Z,63.42
2023-02-18T14:09:38.426Z,63.98
2023-02-18T14:12:27.104Z,64.42
2023-02-18T14:14:55.651Z,64.35
2023-02-18T14:17:40.324Z,64.75
2023-02-18T14:20:34.553Z,64.55
2023-02-18T14:23:02.898Z,65.44
2023-02-18T14:25:40.942Z,65.22
2023-02-18T14:28:37.716Z,65.44
2023-02-18T14:31:08.243Z,65.40
2023-02-18T14:33:38.250Z,65.66
2023-02-18T14:36:11.152Z,65.78
2023-02-18T14:38:45.375Z,66.97
2023-02-18T14:41:26.793Z,66.52
2023-02-18T14:44:34.473Z,66.56
2023-02-18T14:47:21.665Z,66.25
2023-02-18T14:49:51.553Z,66.45
2023-02-18T14:52:25.127Z,66.55
2023-02-18T14:54:53.527Z,66.67
2023-02-18T14:57:29.884Z,66.70
2023-02-18T14:59:59.707Z,67.19
2023-02-18T15:02:31.074Z,66.83
2023-02-18T15:05:13.971Z,67.01
2023-02-18T15:07:42.721Z,66.61
2023-02-18T15:10:16.257Z,67.03
2023-02-18T15:12:46.018Z,67.59
2023-02-18T15:15:16.450Z,67.28
2023-02-18T15:17:47.488Z,66.99
2023-02-18T15:20:15.962Z,67.59
2023-02-18T15:22:44.841Z,66.48
2023-02-18T15:25:14.430Z,65.17
2023-02-18T15:27:47.135Z,65.55
2023-02-18T15:30:21.432Z,64.49
2023-02-18T15:32:52.913Z,63.73
2023-02-18T15:35:23.124Z,64.29
2023-02-18T15:37:53.992Z,63.79
2023-02-18T15:40:23.654Z,63.51
2023-02-18T15:42:54.305Z,63.67
2023-02-18T15:45:23.636Z,64.62
2023-02-18T15:47:54.664Z,63.15
2023-02-18T15:50:24.847Z,64.02
2023-02-18T15:52:54.706Z,64.74
2023-02-18T15:55:33.780Z,64.35
2023-02-18T15:58:05.286Z,64.61
2023-02-18T16:00:36.659Z,64.12
2023-02-18T16:03:12.745Z,64.44
2023-02-18T16:05:42.211Z,64.94
2023-02-18T16:08:16.178Z,63.63
2023-02-18T16:10:48.313Z,63.92
2023-02-18T16:13:19.732Z,63.88
2023-02-18T16:15:49.866Z,62.68
2023-02-18T16:18:30.792Z,63.32
2023-02-18T16:21:01.991Z,63.23
2023-02-18T16:23:37.197Z,64.05
2023-02-18T16:26:18.464Z,64.48
2023-02-18T16:28:48.120Z,64.80
2023-02-18T16:31:17.292Z,65.52
2023-02-18T16:33:45.815Z,65.91
2023-02-18T16:36:16.327Z,65.89
2023-02-18T16:38:45.324Z,66.09
2023-02-18T16:41:14.937Z,65.89
2023-02-18T16:43:43.708Z,65.51
2023-02-18T16:46:16.762Z,65.21
2023-02-18T16:48:46.959Z,65.86
2023-02-18T16:51:17.113Z,65.39
2023-02-18T16:53:45.634Z,65.45
2023-02-18T16:56:15.750Z,66.05
2023-02-18T16:58:44.430Z,64.30
2023-02-18T17:01:29.603Z,64.39
2023-02-18T17:03:58.523Z,64.86
2023-02-18T17:06:26.911Z,65.34
2023-02-18T17:08:55.224Z,65.48
2023-02-18T17:11:25.986Z,65.12
2023-02-18T17:13:58.176Z,65.25
2023-02-18T17:16:28.045Z,65.02
2023-02-18T17:18:56.564Z,65.24
2023-02-18T17:21:26.145Z,65.50
2023-02-18T17:23:54.526Z,65.49
2023-02-18T17:26:24.720Z,65.19
2023-02-18T17:28:54.204Z,65.16
2023-02-18T17:31:24.540Z,65.60
2023-02-18T17:33:54.759Z,65.25
2023-02-18T17:36:23.592Z,65.01
2023-02-18T17:38:52.142Z,65.55
2023-02-18T17:41:21.069Z,65.77
2023-02-18T17:43:49.319Z,65.28
2023-02-18T17:46:19.231Z,65.14
2023-02-18T17:48:48.341Z,65.55
2023-02-18T17:51:25.261Z,65.80
2023-02-18T17:53:53.663Z,65.88
2023-02-18T17:56:22.215Z,66.03
2023-02-18T17:58:50.637Z,66.15
2023-02-18T18:01:21.152Z,66.98
2023-02-18T18:03:49.631Z,66.94
2023-02-18T18:06:21.374Z,66.88
2023-02-18T18:08:50.023Z,67.72
2023-02-18T18:11:20.878Z,68.05
2023-02-18T18:13:49.654Z,67.90
2023-02-18T18:16:18.841Z,68.05
2023-02-18T18:18:47.314Z,68.28
2023-02-18T18:21:21.053Z,68.18
2023-02-18T18:23:50.034Z,68.80
2023-02-18T18:26:18.447Z,68.77
2023-02-18T18:28:46.915Z,68.78
2023-02-18T18:31:18.023Z,68.91
2023-02-18T18:33:48.930Z,68.63
2023-02-18T18:36:19.630Z,68.62
2023-02-18T18:38:49.669Z,68.78
2023-02-18T18:41:19.657Z,68.52
2023-02-18T18:43:49.514Z,68.50
2023-02-18T18:46:18.095Z,68.46
2023-02-18T18:48:46.423Z,68.58
2023-02-18T18:51:17.080Z,68.80
2023-02-18T18:53:45.774Z,68.66
2023-02-18T18:56:15.505Z,68.82
2023-02-18T18:58:43.841Z,68.54
2023-02-18T19:01:16.400Z,68.95
2023-02-18T19:03:45.362Z,68.65
2023-02-18T19:06:14.012Z,68.70
2023-02-18T19:08:42.496Z,68.77
2023-02-18T19:11:12.486Z,68.37
2023-02-18T19:13:42.600Z,68.83
2023-02-18T19:16:16.751Z,68.93
2023-02-18T19:18:45.227Z,68.55
2023-02-18T19:21:13.954Z,68.85
2023-02-18T19:23:42.283Z,68.50
2023-02-18T19:26:10.637Z,68.56
2023-02-18T19:28:38.918Z,68.06
2023-02-18T19:31:11.015Z,68.02
2023-02-18T19:33:40.803Z,67.91
2023-02-18T19:36:10.455Z,68.08
2023-02-18T19:38:38.966Z,68.45
2023-02-18T19:41:08.628Z,68.25
2023-02-18T19:43:37.131Z,67.93
2023-02-18T19:46:10.807Z,67.78
2023-02-18T19:48:39.564Z,68.33
2023-02-18T19:51:08.871Z,68.37
2023-02-18T19:53:37.666Z,68.15
2023-02-18T19:56:07.514Z,67.96
2023-02-18T19:58:36.070Z,68.11
2023-02-18T20:01:04.562Z,68.02
2023-02-18T20:03:35.034Z,68.48
2023-02-18T20:06:03.374Z,68.30
2023-02-18T20:08:36.761Z,68.15
2023-02-18T20:11:05.013Z,68.31
2023-02-18T20:13:33.135Z,68.53
2023-02-18T20:16:01.633Z,68.79
2023-02-18T20:18:30.356Z,68.65
2023-02-18T20:21:00.109Z,68.56
2023-02-18T20:23:28.536Z,68.62
2023-02-18T20:25:56.964Z,68.49
2023-02-18T20:28:25.378Z,68.72
2023-02-18T20:31:05.344Z,68.82
2023-02-18T20:33:34.126Z,68.59
2023-02-18T20:36:07.153Z,68.78
2023-02-18T20:38:35.883Z,69.26
2023-02-18T20:41:05.758Z,69.29
2023-02-18T20:43:34.897Z,68.91
2023-02-18T20:46:04.384Z,69.28
2023-02-18T20:48:32.880Z,69.61
2023-02-18T20:51:06.092Z,69.51
2023-02-18T20:53:35.588Z,69.57
2023-02-18T20:56:04.328Z,69.73
2023-02-18T20:58:33.302Z,69.53
2023-02-18T21:01:02.835Z,69.63
2023-02-18T21:03:32.058Z,70.13
2023-02-18T21:06:02.707Z,69.72
2023-02-18T21:08:34.230Z,70.16
2023-02-18T21:11:04.523Z,70.18
2023-02-18T21:13:34.182Z,70.52
2023-02-18T21:16:04.117Z,70.32
2023-02-18T21:18:32.816Z,70.70
2023-02-18T21:21:05.550Z,70.74
2023-02-18T21:23:35.982Z,70.87
2023-02-18T21:26:05.625Z,70.68
2023-02-18T21:28:34.491Z,70.46
2023-02-18T21:31:03.178Z,70.82
2023-02-18T21:33:31.735Z,70.70
2023-02-18T21:36:03.209Z,70.94
2023-02-18T21:38:31.659Z,71.21
2023-02-18T21:41:01.452Z,71.34
2023-02-18T21:43:29.750Z,70.79
2023-02-18T21:46:06.936Z,70.95
2023-02-18T21:48:53.053Z,70.97
2023-02-18T21:51:35.818Z,71.22
2023-02-18T21:54:04.293Z,71.04
2023-02-18T21:56:34.104Z,71.27
2023-02-18T21:59:02.563Z,71.48
2023-02-18T22:01:31.077Z,72.11
2023-02-18T22:03:59.410Z,71.96
2023-02-18T22:06:27.859Z,72.22
2023-02-18T22:08:56.209Z,72.60
2023-02-18T22:11:25.103Z,72.72
2023-02-18T22:13:54.864Z,73.16
2023-02-18T22:16:23.308Z,73.85
2023-02-18T22:18:51.662Z,74.45
2023-02-18T22:21:21.127Z,74.60
2023-02-18T22:23:49.580Z,74.48
2023-02-18T22:26:19.218Z,74.75
2023-02-18T22:28:52.160Z,74.54
2023-02-18T22:31:23.204Z,74.54
2023-02-18T22:33:53.632Z,75.60
2023-02-18T22:36:23.180Z,75.79
2023-02-18T22:38:51.551Z,76.32
2023-02-18T22:41:21.636Z,76.85
2023-02-18T22:43:49.994Z,77.34
2023-02-18T22:46:19.567Z,76.69
2023-02-18T22:48:49.337Z,77.43
2023-02-18T22:51:19.584Z,77.92
2023-02-18T22:53:48.512Z,78.14
2023-02-18T22:56:18.360Z,77.54
2023-02-18T22:58:48.337Z,77.31
2023-02-18T23:01:23.919Z,77.41
2023-02-18T23:03:54.572Z,77.61
2023-02-18T23:06:23.666Z,77.51
2023-02-18T23:08:52.770Z,77.50
2023-02-18T23:11:21.547Z,77.26
2023-02-18T23:14:10.538Z,76.68
2023-02-18T23:16:53.051Z,76.44
2023-02-18T23:19:23.046Z,75.96
2023-02-18T23:21:51.547Z,75.27
2023-02-18T23:24:20.007Z,74.85
2023-02-18T23:26:48.949Z,74.79
2023-02-18T23:29:18.340Z,74.68
2023-02-18T23:31:46.860Z,74.84
2023-02-18T23:34:16.514Z,75.56
2023-02-18T23:36:47.532Z,76.04
2023-02-18T23:39:18.701Z,76.23
2023-02-18T23:41:48.058Z,76.08
2023-02-18T23:44:17.649Z,76.04
2023-02-18T23:46:46.155Z,76.08
2023-02-18T23:49:16.356Z,76.37
2023-02-18T23:51:46.268Z,76.45
2023-02-18T23:54:14.860Z,76.74
2023-02-18T23:56:43.467Z,76.75
2023-02-18T23:59:12.596Z,76.96
